Time;durP1;ratioP1;P1;durP2;ratioP2;P2;SDS_P1;SDS_P2;PMS_P1;PMS_P2;Temp;Humidity;BMP_temperature;BMP_pressure;BME280_temperature;BME280_humidity;BME280_pressure;Samples;Min_cycle;Max_cycle;Signal;HPM_P1;HPM_P2
2023/07/07 00:01:04;;;;;;;;;7.67;5.67;;;;;22.79;37.99;101131.59;5041455;28;45413;-76
2023/07/07 00:03:30;;;;;;;;;7.33;5.67;;;;;22.93;38.17;101165.72;5042471;28;45445;-78
2023/07/07 00:05:56;;;;;;;;;8.33;5.67;;;;;22.72;38.13;101131.94;5024095;28;46885;-75
2023/07/07 00:08:22;;;;;;;;;7.33;6.00;;;;;22.81;38.30;101172.47;5039361;28;45173;-77
2023/07/07 00:10:53;;;;;;;;;8.33;7.00;;;;;22.56;38.59;101137.91;5021768;28;45242;-77
2023/07/07 00:13:21;;;;;;;;;8.00;6.33;;;;;22.20;38.34;101092.22;5040169;28;45607;-78
2023/07/07 00:16:00;;;;;;;;;11.00;11.00;;;;;22.16;38.63;101094.16;5031110;28;47737;-78
2023/07/07 00:18:26;;;;;;;;;10.00;9.33;;;;;22.64;38.72;101158.97;5025127;28;45486;-78
2023/07/07 00:20:54;;;;;;;;;9.67;8.00;;;;;22.54;38.55;101139.78;5022442;28;45419;-78
2023/07/07 00:23:20;;;;;;;;;12.33;7.67;;;;;22.46;38.80;101139.22;5020530;28;45302;-77
2023/07/07 00:26:05;;;;;;;;;10.00;6.33;;;;;22.60;38.81;101189.38;5019127;28;45583;-75
2023/07/07 00:28:33;;;;;;;;;9.00;9.00;;;;;22.60;38.63;101181.38;5018860;28;45372;-78
2023/07/07 00:30:59;;;;;;;;;10.67;9.00;;;;;22.47;38.59;101175.69;5018825;28;45409;-75
2023/07/07 00:33:25;;;;;;;;;8.33;7.00;;;;;22.54;38.58;101189.63;5018656;28;45494;-76
2023/07/07 00:35:51;;;;;;;;;11.00;8.67;;;;;21.96;38.79;101070.09;5019026;28;46156;-75
2023/07/07 00:38:17;;;;;;;;;13.00;7.00;;;;;21.97;38.41;101070.03;5002413;28;45471;-78
2023/07/07 00:40:44;;;;;;;;;8.67;8.33;;;;;22.49;38.66;101162.25;5019131;28;45911;-75
2023/07/07 00:43:21;;;;;;;;;13.67;9.33;;;;;22.54;38.54;101165.59;5001134;28;45423;-77
2023/07/07 00:45:46;;;;;;;;;8.33;6.33;;;;;22.53;38.46;101172.75;5019116;28;45554;-75
2023/07/07 00:48:40;;;;;;;;;10.67;7.00;;;;;22.19;38.38;101102.03;5018118;28;45355;-77
2023/07/07 00:51:15;;;;;;;;;10.33;8.67;;;;;22.51;38.53;101158.56;5014357;28;45513;-79
2023/07/07 00:53:45;;;;;;;;;8.00;7.00;;;;;22.51;38.57;101163.06;5017617;28;45411;-76
2023/07/07 00:56:21;;;;;;;;;9.33;6.33;;;;;22.51;38.58;101166.59;5022143;28;45533;-77
2023/07/07 00:58:47;;;;;;;;;7.33;6.33;;;;;22.56;38.75;101156.59;5039007;28;45578;-80
2023/07/07 01:01:17;;;;;;;;;6.67;6.67;;;;;22.33;38.49;101133.53;5038523;28;45458;-77
2023/07/07 01:03:52;;;;;;;;;8.00;8.00;;;;;22.52;38.57;101155.00;5038170;28;45277;-77
2023/07/07 01:06:25;;;;;;;;;6.67;6.67;;;;;21.51;38.56;100996.34;5038438;28;46641;-79
2023/07/07 01:08:59;;;;;;;;;7.33;7.33;;;;;22.47;38.61;101156.09;5038046;28;45460;-79
2023/07/07 01:11:25;;;;;;;;;7.33;7.33;;;;;22.44;38.56;101136.59;5020455;28;45430;-77
2023/07/07 01:13:51;;;;;;;;;6.67;6.67;;;;;22.48;38.75;101141.84;5037654;28;45465;-76
2023/07/07 01:16:41;;;;;;;;;8.33;8.33;;;;;22.27;38.67;101106.22;5038240;28;46093;-78
2023/07/07 01:19:18;;;;;;;;;6.67;6.00;;;;;22.46;38.61;101138.34;5020088;28;45502;-78
2023/07/07 01:22:26;;;;;;;;;8.67;7.00;;;;;22.35;38.80;101153.03;5019619;28;45464;-78
2023/07/07 01:25:18;;;;;;;;;11.33;7.33;;;;;21.71;39.03;101056.84;5038353;28;45469;-77
2023/07/07 01:28:00;;;;;;;;;9.00;6.00;;;;;21.97;39.13;101090.47;5037701;28;46207;-78
2023/07/07 01:30:36;;;;;;;;;4.33;3.00;;;;;22.23;39.35;101150.81;5019755;28;45491;-78
2023/07/07 01:33:08;;;;;;;;;7.67;7.33;;;;;22.06;39.56;101119.44;5037778;28;45379;-79
2023/07/07 01:35:34;;;;;;;;;8.00;6.67;;;;;22.18;39.49;101148.28;5038504;28;45461;-78
2023/07/07 01:38:01;;;;;;;;;10.00;6.33;;;;;22.18;39.74;101139.44;5038146;28;45355;-77
2023/07/07 01:40:36;;;;;;;;;6.67;6.67;;;;;22.01;39.63;101127.63;5038580;28;45348;-77
2023/07/07 01:43:08;;;;;;;;;9.00;7.00;;;;;22.14;39.61;101143.16;5038117;28;45482;-76
2023/07/07 01:45:49;;;;;;;;;9.00;8.33;;;;;22.11;39.78;101140.59;5038383;28;45399;-77
2023/07/07 01:48:31;;;;;;;;;8.67;6.67;;;;;22.06;39.63;101161.25;5038940;28;45426;-78
2023/07/07 01:50:59;;;;;;;;;8.00;7.00;;;;;21.81;39.93;101112.44;5039999;28;45572;-78
2023/07/07 01:53:29;;;;;;;;;7.33;7.33;;;;;21.88;40.06;101126.41;5020833;28;45525;-77
2023/07/07 01:55:59;;;;;;;;;6.00;4.33;;;;;21.96;39.73;101137.63;5038925;28;45525;-79
2023/07/07 01:58:27;;;;;;;;;8.33;7.00;;;;;21.38;39.90;101049.22;5036902;28;46316;-78
2023/07/07 02:00:55;;;;;;;;;8.00;5.67;;;;;21.28;40.20;101039.81;5019554;28;45978;-74
2023/07/07 02:03:21;;;;;;;;;9.33;6.33;;;;;21.69;40.26;101086.25;5037500;28;45486;-76
2023/07/07 02:05:47;;;;;;;;;6.33;5.00;;;;;21.80;40.43;101112.47;5036166;28;45617;-76
2023/07/07 02:08:13;;;;;;;;;7.67;6.33;;;;;21.97;40.47;101134.03;5037709;28;45646;-77
2023/07/07 02:10:38;;;;;;;;;9.00;6.00;;;;;21.47;40.35;101050.66;5038853;28;45364;-76
2023/07/07 02:13:04;;;;;;;;;7.00;7.00;;;;;21.91;40.49;101144.94;5038514;28;45530;-77
2023/07/07 02:15:30;;;;;;;;;6.00;5.33;;;;;21.77;40.49;101112.59;5038676;28;45344;-76
2023/07/07 02:17:56;;;;;;;;;8.00;6.67;;;;;21.59;40.63;101085.75;5037248;28;45609;-75
2023/07/07 02:20:21;;;;;;;;;10.00;7.00;;;;;21.61;40.37;101098.97;5036903;28;45522;-75
2023/07/07 02:22:47;;;;;;;;;7.00;7.00;;;;;21.31;41.02;101056.56;5037207;28;45613;-75
2023/07/07 02:25:13;;;;;;;;;5.00;5.00;;;;;21.39;40.83;101065.16;5037417;28;45339;-77
2023/07/07 02:27:38;;;;;;;;;7.33;6.67;;;;;21.30;40.92;101059.28;5036906;28;46449;-76
2023/07/07 02:30:05;;;;;;;;;7.00;7.00;;;;;21.57;41.05;101113.38;5037304;28;45766;-76
2023/07/07 02:32:30;;;;;;;;;8.00;7.00;;;;;21.76;40.79;101140.19;5035304;28;45490;-76
2023/07/07 02:34:58;;;;;;;;;7.00;7.00;;;;;20.98;40.94;101021.41;5036765;28;45347;-77
2023/07/07 02:37:24;;;;;;;;;10.67;8.00;;;;;21.33;40.88;101064.47;5036867;28;45470;-72
2023/07/07 02:39:50;;;;;;;;;8.00;7.33;;;;;21.60;40.87;101116.78;5018852;28;46026;-76
2023/07/07 02:42:16;;;;;;;;;6.67;5.67;;;;;20.83;40.85;100993.53;5039875;28;45505;-75
2023/07/07 02:44:42;;;;;;;;;8.00;8.00;;;;;21.28;41.21;101085.97;5041797;28;45368;-75
2023/07/07 02:47:08;;;;;;;;;9.33;6.00;;;;;21.06;40.66;101051.25;5040632;28;46612;-77
2023/07/07 02:49:34;;;;;;;;;7.33;6.33;;;;;21.46;41.18;101128.88;5039234;28;45313;-74
2023/07/07 02:52:00;;;;;;;;;9.00;7.33;;;;;21.35;40.82;101134.56;5039163;28;45491;-75
2023/07/07 02:54:26;;;;;;;;;7.33;6.33;;;;;20.63;41.24;101026.19;5040210;28;45469;-75
2023/07/07 02:56:53;;;;;;;;;10.00;6.67;;;;;21.30;41.22;101115.22;5039631;28;46527;-75
2023/07/07 02:59:19;;;;;;;;;8.67;7.00;;;;;20.82;41.05;101044.19;5039493;28;45320;-75
2023/07/07 03:01:45;;;;;;;;;6.00;6.00;;;;;20.48;40.83;100990.31;5039843;28;45531;-77
2023/07/07 03:04:12;;;;;;;;;7.00;6.33;;;;;21.28;40.85;101112.59;5039844;28;45300;-76
2023/07/07 03:06:39;;;;;;;;;6.67;6.00;;;;;20.99;40.97;101063.06;5040863;28;45482;-76
2023/07/07 03:09:06;;;;;;;;;11.33;7.33;;;;;20.44;41.27;100972.72;5040356;28;45335;-78
2023/07/07 03:11:31;;;;;;;;;9.00;7.00;;;;;20.35;40.95;100959.72;5040308;28;45755;-77
2023/07/07 03:13:57;;;;;;;;;6.00;6.00;;;;;21.29;41.21;101132.16;5041586;28;45494;-76
2023/07/07 03:16:30;;;;;;;;;7.33;6.00;;;;;20.41;41.20;100985.28;5022775;28;47727;-76
2023/07/07 03:19:02;;;;;;;;;7.00;6.33;;;;;20.46;41.17;100994.81;5040017;28;45406;-77
2023/07/07 03:21:28;;;;;;;;;7.00;7.00;;;;;20.76;41.11;101053.22;5021887;28;45432;-77
2023/07/07 03:23:55;;;;;;;;;8.00;7.00;;;;;20.71;41.61;101036.56;5039952;28;45589;-75
2023/07/07 03:26:23;;;;;;;;;9.67;7.00;;;;;21.12;41.58;101130.94;5039725;28;45623;-77
2023/07/07 03:28:49;;;;;;;;;10.00;8.33;;;;;21.14;41.81;101120.22;5041111;28;45577;-78
2023/07/07 03:31:25;;;;;;;;;7.67;7.33;;;;;20.93;41.84;101101.44;5039966;28;45490;-74
2023/07/07 03:33:54;;;;;;;;;6.00;6.00;;;;;20.34;41.98;100988.13;5046428;28;45486;-77
2023/07/07 03:36:23;;;;;;;;;9.67;8.00;;;;;21.04;41.95;101117.03;5044123;28;46451;-77
2023/07/07 03:38:49;;;;;;;;;9.00;7.33;;;;;20.99;42.41;101132.28;5028629;28;45372;-78
2023/07/07 03:41:19;;;;;;;;;9.00;8.00;;;;;20.94;42.17;101127.13;5040865;28;45305;-79
2023/07/07 03:43:45;;;;;;;;;7.33;6.00;;;;;20.30;42.30;101031.72;5040014;28;45770;-75
2023/07/07 03:46:19;;;;;;;;;8.00;6.33;;;;;20.54;42.83;101085.88;5039083;28;46318;-78
2023/07/07 03:48:47;;;;;;;;;5.00;5.00;;;;;20.28;42.68;101049.50;5039667;28;45493;-76
2023/07/07 03:51:13;;;;;;;;;6.33;6.33;;;;;20.38;42.58;101071.34;5038788;28;45392;-77
2023/07/07 03:53:40;;;;;;;;;7.00;7.00;;;;;20.37;43.04;101066.09;5038111;28;45638;-77
2023/07/07 03:56:06;;;;;;;;;9.00;7.00;;;;;20.08;42.48;101031.56;5038711;28;45408;-77
2023/07/07 03:58:32;;;;;;;;;9.33;7.33;;;;;20.75;42.90;101120.72;5039550;28;45367;-77
2023/07/07 04:01:03;;;;;;;;;8.33;7.00;;;;;20.65;42.84;101141.44;5039600;28;45389;-77
2023/07/07 04:03:28;;;;;;;;;8.00;7.33;;;;;19.53;42.98;100961.56;5037622;28;45470;-77
2023/07/07 04:05:55;;;;;;;;;8.00;8.00;;;;;20.59;43.36;101138.13;5039041;28;45381;-77
2023/07/07 04:08:25;;;;;;;;;10.67;9.00;;;;;20.10;43.15;101058.13;5038646;28;45345;-76
2023/07/07 04:10:59;;;;;;;;;11.00;8.67;;;;;20.17;43.51;101067.63;5020871;28;45511;-76
2023/07/07 04:13:26;;;;;;;;;7.33;7.33;;;;;19.70;43.71;101003.56;5039802;28;45529;-76
2023/07/07 04:16:04;;;;;;;;;8.00;6.00;;;;;19.88;43.50;101040.19;5038484;28;46152;-76
2023/07/07 04:18:32;;;;;;;;;9.67;8.00;;;;;20.19;43.78;101088.84;5038403;28;45305;-77
2023/07/07 04:21:05;;;;;;;;;7.00;7.00;;;;;20.05;43.69;101076.88;5039401;28;46130;-77
2023/07/07 04:23:31;;;;;;;;;8.33;5.67;;;;;19.67;43.77;101006.25;5039529;28;45293;-78
2023/07/07 04:25:57;;;;;;;;;11.67;11.33;;;;;20.41;43.72;101110.31;5037772;28;46646;-78
2023/07/07 04:28:22;;;;;;;;;8.67;4.00;;;;;20.45;43.57;101114.59;5038782;28;45331;-75
2023/07/07 04:30:55;;;;;;;;;9.67;6.00;;;;;20.61;43.58;101145.13;5020673;28;45282;-75
2023/07/07 04:33:23;;;;;;;;;10.00;7.00;;;;;20.26;43.41;101091.28;5038814;28;45367;-78
2023/07/07 04:35:53;;;;;;;;;10.67;8.00;;;;;20.64;43.40;101138.81;5038923;28;45412;-77
2023/07/07 04:38:20;;;;;;;;;11.67;9.00;;;;;20.71;43.40;101145.69;5039078;28;45480;-77
2023/07/07 04:40:46;;;;;;;;;11.33;8.33;;;;;19.73;43.24;100987.50;5039243;28;45345;-79
2023/07/07 04:43:12;;;;;;;;;7.67;7.00;;;;;20.48;43.54;101110.03;5041323;28;45886;-79
2023/07/07 04:45:38;;;;;;;;;11.33;9.00;;;;;20.47;43.26;101110.09;5040131;28;46433;-79
2023/07/07 04:48:03;;;;;;;;;12.33;7.33;;;;;20.21;43.32;101050.63;5039961;28;45628;-79
2023/07/07 04:50:33;;;;;;;;;8.00;7.33;;;;;20.50;43.32;101105.53;5039824;28;45328;-78
2023/07/07 04:52:58;;;;;;;;;7.67;6.67;;;;;20.68;43.22;101128.03;5040895;28;45474;-78
2023/07/07 04:55:24;;;;;;;;;12.00;9.00;;;;;20.48;43.22;101087.91;5040927;28;45333;-78
2023/07/07 04:57:49;;;;;;;;;8.67;8.33;;;;;20.22;43.28;101023.13;5039450;28;45498;-79
2023/07/07 05:00:15;;;;;;;;;8.00;8.00;;;;;20.49;43.28;101063.00;5038521;28;45554;-78
2023/07/07 05:02:41;;;;;;;;;9.33;8.00;;;;;20.90;43.10;101138.81;5020935;28;45329;-77
2023/07/07 05:05:07;;;;;;;;;14.00;9.67;;;;;20.78;43.01;101109.94;5037817;28;46099;-77
2023/07/07 05:07:32;;;;;;;;;8.33;8.33;;;;;20.74;43.25;101111.84;5018530;28;45876;-79
2023/07/07 05:09:58;;;;;;;;;4.67;4.67;;;;;20.91;43.33;101137.91;5014702;28;45549;-79
2023/07/07 05:12:23;;;;;;;;;8.67;8.00;;;;;20.91;43.33;101134.38;5038258;28;46057;-78
2023/07/07 05:14:52;;;;;;;;;10.33;8.33;;;;;20.45;43.45;101070.22;5020297;28;46679;-79
2023/07/07 05:17:17;;;;;;;;;9.00;7.67;;;;;20.50;43.26;101067.41;5021411;28;45439;-79
2023/07/07 05:19:43;;;;;;;;;11.00;8.00;;;;;20.82;43.29;101118.72;5021335;28;45403;-79
2023/07/07 05:22:09;;;;;;;;;9.67;8.67;;;;;20.83;43.52;101126.63;5042521;28;45440;-78
2023/07/07 05:24:35;;;;;;;;;9.67;9.33;;;;;20.29;43.34;101032.66;5040341;28;46145;-78
2023/07/07 05:27:01;;;;;;;;;10.00;9.67;;;;;20.84;43.61;101122.19;5039711;28;45252;-79
2023/07/07 05:29:26;;;;;;;;;7.67;6.67;;;;;21.10;43.31;101148.78;5038824;28;45340;-79
2023/07/07 05:31:52;;;;;;;;;11.00;8.00;;;;;20.73;43.11;101080.81;5038656;28;45288;-79
2023/07/07 05:34:19;;;;;;;;;12.00;9.33;;;;;21.18;43.57;101149.34;5037524;28;46229;-80
2023/07/07 05:36:45;;;;;;;;;12.67;9.00;;;;;21.08;43.10;101125.78;5000991;28;46590;-80
2023/07/07 05:39:11;;;;;;;;;11.33;8.67;;;;;21.19;43.36;101152.91;5018794;28;46150;-80
2023/07/07 05:41:37;;;;;;;;;9.00;9.00;;;;;21.23;43.03;101165.19;5024617;28;45538;-79
2023/07/07 05:44:03;;;;;;;;;9.33;9.33;;;;;20.50;43.33;101036.38;5030188;28;46363;-79
2023/07/07 05:46:28;;;;;;;;;9.00;9.00;;;;;21.20;43.46;101144.00;5038220;28;45390;-79
2023/07/07 05:48:58;;;;;;;;;9.67;8.00;;;;;21.19;43.41;101126.28;5042196;28;45438;-78
2023/07/07 05:51:24;;;;;;;;;8.67;7.33;;;;;21.32;43.05;101122.22;5021283;28;45646;-78
2023/07/07 05:53:52;;;;;;;;;11.00;8.67;;;;;21.58;43.45;101145.28;5020570;28;45501;-79
2023/07/07 05:56:21;;;;;;;;;9.67;7.33;;;;;21.66;43.23;101163.66;5038837;28;45413;-78
2023/07/07 05:58:47;;;;;;;;;8.67;8.00;;;;;20.88;43.07;101025.31;5039477;28;45490;-79
2023/07/07 06:01:58;;;;;;;;;10.00;8.33;;;;;21.83;42.85;101159.47;5040249;28;45173;-79
2023/07/07 06:04:23;;;;;;;;;9.00;7.00;;;;;21.79;43.20;101114.28;4987096;28;45464;-79
2023/07/07 06:07:00;;;;;;;;;9.00;7.00;;;;;22.17;42.58;101148.38;5017526;28;45584;-79
2023/07/07 06:09:50;;;;;;;;;8.67;8.00;;;;;22.34;42.19;101145.94;5018378;28;45438;-78
2023/07/07 06:12:26;;;;;;;;;10.00;9.00;;;;;22.43;42.14;101142.03;5017797;28;45254;-80
2023/07/07 06:14:55;;;;;;;;;9.00;8.33;;;;;22.36;41.69;101114.72;5017513;28;45474;-79
2023/07/07 06:17:28;;;;;;;;;9.00;7.67;;;;;22.44;41.52;101123.25;5001788;28;45326;-78
2023/07/07 06:19:57;;;;;;;;;7.33;6.00;;;;;21.68;41.89;100988.53;5022194;28;45346;-79
2023/07/07 06:22:30;;;;;;;;;9.00;7.00;;;;;22.31;42.08;101100.69;5022397;28;45304;-80
2023/07/07 06:25:00;;;;;;;;;6.00;6.00;;;;;22.35;42.09;101083.63;5003982;28;47173;-81
2023/07/07 06:27:32;;;;;;;;;12.00;9.00;;;;;22.89;41.62;101153.44;5019370;28;45487;-79
2023/07/07 06:30:07;;;;;;;;;8.00;8.00;;;;;23.08;41.11;101157.06;5022185;28;45465;-78
2023/07/07 06:32:46;;;;;;;;;14.00;8.00;;;;;23.12;41.29;101155.16;5022845;28;45359;-80
2023/07/07 06:35:11;;;;;;;;;12.00;8.67;;;;;22.56;41.18;101073.84;5003316;28;47550;-79
2023/07/07 06:37:37;;;;;;;;;9.33;8.33;;;;;23.08;41.51;101142.84;5004092;28;45421;-79
2023/07/07 06:40:03;;;;;;;;;10.67;7.00;;;;;23.05;40.93;101109.13;5019796;28;45396;-80
2023/07/07 06:42:28;;;;;;;;;10.33;10.33;;;;;22.74;40.75;101044.63;5022313;28;45626;-79
2023/07/07 06:44:54;;;;;;;;;12.67;7.67;;;;;22.93;40.44;101076.72;5005928;28;46904;-79
2023/07/07 06:47:19;;;;;;;;;12.33;9.33;;;;;23.27;40.68;101135.75;5024999;28;45491;-79
2023/07/07 06:49:45;;;;;;;;;10.33;8.67;;;;;23.34;40.69;101125.66;5032057;28;45340;-78
2023/07/07 06:52:11;;;;;;;;;7.33;7.33;;;;;23.61;40.98;101152.06;5029749;28;45143;-80
2023/07/07 06:54:37;;;;;;;;;12.00;9.67;;;;;23.81;40.84;101153.88;5008487;28;47527;-79
2023/07/07 06:57:03;;;;;;;;;10.00;7.33;;;;;23.85;39.80;101168.84;5024112;28;45347;-78
2023/07/07 06:59:29;;;;;;;;;12.33;8.67;;;;;23.65;40.02;101135.81;5023721;28;45280;-78
2023/07/07 07:01:54;;;;;;;;;11.00;9.33;;;;;23.11;40.20;101021.63;5021278;28;45581;-80
2023/07/07 07:04:20;;;;;;;;;14.33;12.00;;;;;23.56;40.47;101074.75;5020504;28;45955;-78
2023/07/07 07:06:46;;;;;;;;;11.00;9.67;;;;;24.18;39.87;101155.69;5003959;28;45356;-80
2023/07/07 07:09:11;;;;;;;;;14.00;12.33;;;;;24.32;39.83;101168.38;5020536;28;46242;-78
2023/07/07 07:11:37;;;;;;;;;9.00;9.00;;;;;23.79;39.25;101064.81;5022374;28;45411;-79
2023/07/07 07:14:03;;;;;;;;;11.00;9.00;;;;;24.15;39.17;101136.22;5021844;28;45725;-79
2023/07/07 07:16:28;;;;;;;;;10.00;8.67;;;;;23.81;39.26;101106.59;5003112;28;45522;-77
2023/07/07 07:18:54;;;;;;;;;9.00;8.67;;;;;24.03;39.77;101165.28;5021199;28;45558;-79
2023/07/07 07:21:20;;;;;;;;;12.67;9.33;;;;;23.70;39.92;101103.53;5021122;28;45396;-80
2023/07/07 07:23:46;;;;;;;;;10.67;9.33;;;;;23.91;39.23;101157.84;5020320;28;46642;-79
2023/07/07 07:26:12;;;;;;;;;9.67;9.00;;;;;23.68;39.56;101114.31;5020815;28;45325;-79
2023/07/07 07:28:57;;;;;;;;;12.33;10.00;;;;;24.02;40.11;101155.53;5021459;28;45256;-78
2023/07/07 07:31:23;;;;;;;;;14.67;11.33;;;;;24.05;40.28;101168.75;5012118;28;45477;-79
2023/07/07 07:33:52;;;;;;;;;10.67;9.67;;;;;23.85;39.84;101140.28;5024109;28;46715;-78
2023/07/07 07:36:20;;;;;;;;;13.00;11.33;;;;;23.67;40.07;101095.66;5031410;28;45356;-79
2023/07/07 07:38:46;;;;;;;;;12.67;8.33;;;;;24.10;40.02;101176.56;5019984;28;45539;-80
2023/07/07 07:41:12;;;;;;;;;12.33;8.00;;;;;23.24;40.02;101037.03;5041079;28;45435;-79
2023/07/07 07:43:38;;;;;;;;;12.67;11.67;;;;;23.61;39.97;101093.25;5042743;28;45265;-81
2023/07/07 07:46:03;;;;;;;;;10.67;9.00;;;;;24.21;39.75;101166.22;5040403;28;45567;-80
2023/07/07 07:48:29;;;;;;;;;12.67;7.00;;;;;24.13;40.25;101169.28;5022204;28;45210;-78
2023/07/07 07:50:54;;;;;;;;;11.00;10.33;;;;;23.90;40.82;101150.78;5039941;28;45586;-80
2023/07/07 07:53:22;;;;;;;;;11.67;11.00;;;;;23.98;40.50;101171.81;5039533;28;46415;-81
2023/07/07 07:55:48;;;;;;;;;10.67;9.00;;;;;23.35;40.54;101052.59;5021268;28;45285;-80
2023/07/07 07:58:13;;;;;;;;;10.00;9.33;;;;;24.07;40.41;101148.16;5040178;28;45360;-79
2023/07/07 08:00:39;;;;;;;;;12.67;10.00;;;;;23.78;40.39;101061.28;5041151;28;45378;-79
2023/07/07 08:03:04;;;;;;;;;10.67;10.67;;;;;24.58;40.13;101176.97;5039464;28;46410;-79
2023/07/07 08:05:31;;;;;;;;;9.67;9.33;;;;;24.47;40.34;101145.38;5040483;28;45531;-83
2023/07/07 08:07:57;;;;;;;;;13.67;11.00;;;;;24.75;39.71;101171.66;5024497;28;45246;-80
2023/07/07 08:10:23;;;;;;;;;8.67;8.67;;;;;24.74;39.77;101180.63;5041272;28;45513;-75
2023/07/07 08:12:48;;;;;;;;;9.33;9.33;;;;;24.34;39.86;101126.34;5040760;28;46361;-76
2023/07/07 08:15:23;;;;;;;;;10.67;8.67;;;;;24.75;39.56;101169.84;5039750;28;45338;-75
2023/07/07 08:17:48;;;;;;;;;11.00;10.00;;;;;24.15;39.38;101046.09;5039021;28;45201;-77
2023/07/07 08:20:19;;;;;;;;;10.00;10.00;;;;;24.55;39.59;101130.66;5040216;28;45348;-76
2023/07/07 08:22:45;;;;;;;;;13.00;9.00;;;;;24.84;39.68;101191.75;5039191;28;46507;-77
2023/07/07 08:25:10;;;;;;;;;10.00;10.00;;;;;24.17;39.51;101089.69;5039281;28;45308;-74
2023/07/07 08:27:37;;;;;;;;;10.33;10.00;;;;;24.52;39.66;101144.22;5004279;28;45443;-77
2023/07/07 08:30:04;;;;;;;;;11.33;5.33;;;;;24.65;39.47;101128.38;5017406;28;45372;-75
2023/07/07 08:32:29;;;;;;;;;11.00;10.00;;;;;24.59;39.70;101099.25;5019414;28;45247;-76
2023/07/07 08:34:55;;;;;;;;;11.67;11.33;;;;;25.12;39.48;101172.44;5019195;28;45532;-76
2023/07/07 08:37:21;;;;;;;;;13.67;10.33;;;;;25.19;39.33;101184.59;5000982;28;45743;-78
2023/07/07 08:39:47;;;;;;;;;11.67;9.00;;;;;24.60;39.68;101084.03;5019289;28;45171;-78
2023/07/07 08:42:44;;;;;;;;;12.00;10.00;;;;;25.22;39.03;101189.81;5020431;28;46113;-76
2023/07/07 08:45:19;;;;;;;;;11.00;11.00;;;;;24.79;39.22;101111.59;5005846;28;45351;-77
2023/07/07 08:47:54;;;;;;;;;11.33;11.00;;;;;25.13;39.11;101168.84;5024599;28;45408;-78
2023/07/07 08:50:35;;;;;;;;;9.67;9.33;;;;;25.07;39.49;101174.50;5038858;28;45581;-78
2023/07/07 08:53:19;;;;;;;;;14.33;13.33;;;;;25.10;39.92;101171.66;5039195;28;45479;-78
2023/07/07 08:56:17;;;;;;;;;12.00;10.33;;;;;25.10;39.50;101174.31;5039288;28;45479;-77
2023/07/07 08:58:54;;;;;;;;;13.33;13.00;;;;;25.11;39.85;101171.59;5018920;28;45446;-76
2023/07/07 09:01:20;;;;;;;;;12.33;10.00;;;;;25.11;39.48;101174.25;5018509;28;45579;-76
2023/07/07 09:04:30;;;;;;;;;11.00;10.00;;;;;25.15;39.21;101166.91;5018529;28;46698;-77
2023/07/07 09:07:06;;;;;;;;;14.00;12.00;;;;;25.43;39.82;101152.09;4959122;28;45668;-77
2023/07/07 09:09:53;;;;;;;;;14.00;11.00;;;;;25.74;38.97;101175.44;5018639;28;45405;-76
2023/07/07 09:12:44;;;;;;;;;14.00;11.00;;;;;25.74;38.48;101186.16;5017722;28;45369;-75
2023/07/07 09:15:21;;;;;;;;;12.33;9.67;;;;;25.84;38.33;101175.78;5017670;28;45450;-78
2023/07/07 09:17:53;;;;;;;;;13.00;11.00;;;;;25.72;38.01;101155.88;5019661;28;45480;-77
2023/07/07 09:20:22;;;;;;;;;13.00;11.33;;;;;25.59;38.35;101120.81;5018911;28;45503;-76
2023/07/07 09:22:59;;;;;;;;;10.67;10.00;;;;;25.62;38.40;101096.50;5000455;28;45517;-76
2023/07/07 09:25:30;;;;;;;;;13.67;9.00;;;;;25.86;38.80;101130.97;5018263;28;45676;-76
2023/07/07 09:28:02;;;;;;;;;13.67;13.33;;;;;26.09;38.60;101159.25;4999702;28;45484;-75
2023/07/07 09:30:34;;;;;;;;;15.00;10.00;;;;;26.13;38.69;101161.66;5023663;28;45308;-75
2023/07/07 09:33:00;;;;;;;;;11.33;11.33;;;;;26.27;39.03;101158.19;5022524;28;45384;-74
2023/07/07 09:35:36;;;;;;;;;14.33;12.67;;;;;26.37;38.73;101156.72;5018885;28;46217;-77
2023/07/07 09:38:26;;;;;;;;;13.00;11.33;;;;;26.47;38.62;101148.97;5017997;28;45403;-75
2023/07/07 09:41:19;;;;;;;;;13.33;13.00;;;;;26.27;38.81;101101.81;5017854;28;45434;-76
2023/07/07 09:44:20;;;;;;;;;17.00;15.33;;;;;26.54;38.65;101145.00;5018448;28;45562;-76
2023/07/07 09:46:52;;;;;;;;;16.00;13.67;;;;;26.61;38.29;101143.69;4989291;28;45656;-74
2023/07/07 09:49:38;;;;;;;;;18.33;15.00;;;;;26.73;37.71;101146.63;5017823;28;45475;-75
2023/07/07 09:52:06;;;;;;;;;18.00;13.67;;;;;26.80;38.15;101145.31;5018588;28;45474;-76
2023/07/07 09:54:35;;;;;;;;;15.33;13.33;;;;;26.71;37.78;101124.34;5019540;28;45425;-79
2023/07/07 09:57:28;;;;;;;;;12.25;12.25;;;;;26.72;38.02;101147.56;5011789;28;45651;-80
2023/07/07 09:59:58;;;;;;;;;15.00;12.67;;;;;26.67;38.01;101115.59;5034279;28;45593;-80
2023/07/07 10:02:25;;;;;;;;;12.33;12.33;;;;;26.90;37.91;101161.75;5040798;28;45469;-80
2023/07/07 10:05:04;;;;;;;;;13.75;11.75;;;;;26.73;37.92;101133.19;5042489;28;45312;-80
2023/07/07 10:07:41;;;;;;;;;19.50;16.00;;;;;26.48;37.96;101083.59;5043930;28;45580;-78
2023/07/07 10:10:13;;;;;;;;;13.00;12.00;;;;;26.39;38.23;101081.44;5024725;28;45455;-80
2023/07/07 10:12:40;;;;;;;;;18.67;17.00;;;;;26.09;37.92;101014.28;5030148;28;45495;-83
2023/07/07 10:15:42;;;;;;;;;21.00;18.33;;;;;26.80;38.46;101140.78;5037139;28;45524;-82
2023/07/07 10:18:21;;;;;;;;;20.00;18.00;;;;;26.65;38.41;101112.16;5038452;28;46481;-83
2023/07/07 10:20:46;;;;;;;;;20.33;17.67;;;;;26.77;38.73;101110.56;5020743;28;45444;-82
2023/07/07 10:23:14;;;;;;;;;39.00;33.33;;;;;26.84;38.26;101109.25;5038105;28;45400;-80
2023/07/07 10:25:42;;;;;;;;;32.67;26.33;;;;;26.93;38.56;101123.91;5019944;28;45671;-81
2023/07/07 10:28:13;;;;;;;;;23.00;21.67;;;;;26.53;38.12;101040.31;5036572;28;45505;-80
2023/07/07 10:30:40;;;;;;;;;31.00;26.00;;;;;27.01;38.29;101101.00;5017942;28;45438;-80
2023/07/07 10:33:09;;;;;;;;;43.33;36.00;;;;;26.86;38.04;101075.94;5038557;28;45325;-81
2023/07/07 10:35:35;;;;;;;;;34.00;28.33;;;;;27.24;37.94;101133.69;5037891;28;45726;-81
2023/07/07 10:38:04;;;;;;;;;25.67;20.00;;;;;27.33;37.85;101122.38;5038148;28;45612;-80
2023/07/07 10:40:31;;;;;;;;;18.67;16.00;;;;;27.37;37.70;101129.28;5036339;28;45505;-81
2023/07/07 10:42:59;;;;;;;;;14.25;13.25;;;;;27.48;37.66;101131.34;5019288;28;45496;-80
2023/07/07 10:45:26;;;;;;;;;12.00;12.00;;;;;27.54;37.37;101124.69;5019244;28;45346;-82
2023/07/07 10:47:51;;;;;;;;;15.25;13.25;;;;;27.21;37.17;101053.22;5037344;28;45576;-80
2023/07/07 10:50:22;;;;;;;;;9.75;8.75;;;;;27.74;36.54;101135.06;5018954;28;45466;-81
2023/07/07 10:53:07;;;;;;;;;10.50;10.50;;;;;27.38;36.54;101046.78;5030131;28;45444;-81
2023/07/07 10:56:15;;;;;;;;;11.25;9.50;;;;;27.92;35.99;101116.88;5037257;28;45309;-81
2023/07/07 10:59:01;;;;;;;;;11.25;10.00;;;;;28.09;35.69;101100.47;5018569;28;46677;-79
2023/07/07 11:01:42;;;;;;;;;14.00;12.25;;;;;28.29;34.93;101125.25;5020740;28;45388;-81
2023/07/07 11:04:36;;;;;;;;;12.50;12.50;;;;;28.48;35.22;101103.38;5023209;28;45494;-80
2023/07/07 11:07:12;;;;;;;;;13.50;10.50;;;;;28.71;34.88;101107.16;5017903;28;45503;-81
2023/07/07 11:10:03;;;;;;;;;12.50;9.50;;;;;28.81;33.68;101110.09;5039732;28;45379;-81
2023/07/07 11:12:47;;;;;;;;;10.25;8.25;;;;;28.73;34.36;101097.16;5034018;28;45651;-78
2023/07/07 11:15:29;;;;;;;;;9.00;9.00;;;;;28.91;34.23;101093.19;5040575;28;45609;-79
2023/07/07 11:18:41;;;;;;;;;14.00;9.75;;;;;28.43;33.69;100978.84;5044042;28;45300;-80
2023/07/07 11:21:34;;;;;;;;;9.75;9.75;;;;;28.60;33.93;100975.88;4982322;28;48054;-79
2023/07/07 11:24:08;;;;;;;;;11.75;10.25;;;;;28.86;33.68;100975.88;5017165;28;45273;-79
2023/07/07 11:27:05;;;;;;;;;13.50;11.00;;;;;29.60;32.72;101063.16;5041585;28;45918;-79
2023/07/07 11:29:33;;;;;;;;;10.00;9.75;;;;;29.58;32.18;101076.75;5042726;28;45415;-80
2023/07/07 11:32:37;;;;;;;;;9.25;9.25;;;;;29.59;31.27;101069.56;5023109;28;47103;-81
2023/07/07 11:35:06;;;;;;;;;8.40;8.40;;;;;29.58;31.47;101063.28;5036585;28;45425;-79
2023/07/07 11:37:53;;;;;;;;;9.75;8.25;;;;;29.46;31.60;101063.31;5023133;28;45606;-78